Terminal Aerodrome Forecast
Issued by NWS Hastings, NE

Home | Current Version | Previous Version | Text Only | Print | Product List | Glossary On
Versions: 1 2 3 4 5 6 7 8 9 10 11 12 13 14 15 16 17 18 19 20 21 22 23 24 25 26 27 28 29 30 31 32
000
FTUS43 KGID 290520
TAFGRI
TAF
KGRI 290520Z 2906/3006 VRB06KT P6SM VCSH SCT030 BKN150
     FM291300 32009KT P6SM SCT060 OVC100
     FM292200 35016G22KT P6SM VCSH SCT025 OVC035
     FM300200 35012KT P6SM OVC025=

USA.gov is the U.S. government's official web portal to all federal, state and local government web resources and services.